createdAt,value
2022-09-28T00:00:42.057Z,85.25
2022-09-28T00:03:09.554Z,84.96
2022-09-28T00:05:36.515Z,85.20
2022-09-28T00:08:03.183Z,85.02
2022-09-28T00:10:30.026Z,84.98
2022-09-28T00:12:56.795Z,85.05
2022-09-28T00:15:24.818Z,85.07
2022-09-28T00:17:51.459Z,85.17
2022-09-28T00:20:19.486Z,85.06
2022-09-28T00:22:46.145Z,85.40
2022-09-28T00:25:13.105Z,85.61
2022-09-28T00:27:40.324Z,85.43
2022-09-28T00:30:07.905Z,85.54
2022-09-28T00:32:34.733Z,85.84
2022-09-28T00:35:01.356Z,85.99
2022-09-28T00:37:28.174Z,85.84
2022-09-28T00:39:55.537Z,85.78
2022-09-28T00:42:24.342Z,85.55
2022-09-28T00:44:56.017Z,85.65
2022-09-28T00:47:45.580Z,85.43
2022-09-28T00:50:18.219Z,85.42
2022-09-28T00:52:50.968Z,85.59
2022-09-28T00:55:21.985Z,85.29
2022-09-28T00:57:57.926Z,85.40
2022-09-28T01:00:24.766Z,85.19
2022-09-28T01:02:51.589Z,85.48
2022-09-28T01:05:18.823Z,85.31
2022-09-28T01:07:46.651Z,85.22
2022-09-28T01:10:14.341Z,85.16
2022-09-28T01:12:41.449Z,85.04
2022-09-28T01:15:08.467Z,85.32
2022-09-28T01:17:44.371Z,85.38
2022-09-28T01:20:31.910Z,85.37
2022-09-28T01:23:17.335Z,85.50
2022-09-28T01:25:54.229Z,85.35
2022-09-28T01:28:26.029Z,85.36
2022-09-28T01:31:15.363Z,85.25
2022-09-28T01:33:48.423Z,85.42
2022-09-28T01:36:25.487Z,85.24
2022-09-28T01:39:09.089Z,85.29
2022-09-28T01:41:36.904Z,85.45
2022-09-28T01:44:06.469Z,85.50
2022-09-28T01:46:37.692Z,85.40
2022-09-28T01:49:27.105Z,85.49
2022-09-28T01:52:09.294Z,85.66
2022-09-28T01:54:44.867Z,85.77
2022-09-28T01:57:15.764Z,85.59
2022-09-28T01:59:47.611Z,85.71
2022-09-28T02:02:19.845Z,85.86
2022-09-28T02:04:51.391Z,85.75
2022-09-28T02:07:30.129Z,85.71
2022-09-28T02:10:04.201Z,85.77
2022-09-28T02:12:44.625Z,85.68
2022-09-28T02:15:17.163Z,85.89
2022-09-28T02:17:45.083Z,85.83
2022-09-28T02:20:13.380Z,85.81
2022-09-28T02:22:45.903Z,85.78
2022-09-28T02:25:30.359Z,85.86
2022-09-28T02:28:02.411Z,85.92
2022-09-28T02:30:34.108Z,85.88
2022-09-28T02:33:06.366Z,85.83
2022-09-28T02:35:35.451Z,85.73
2022-09-28T02:38:02.840Z,85.72
2022-09-28T02:40:34.444Z,85.74
2022-09-28T02:43:20.677Z,85.67
2022-09-28T02:46:00.542Z,85.52
2022-09-28T02:49:05.002Z,85.24
2022-09-28T02:51:58.050Z,85.44
2022-09-28T02:54:49.663Z,85.30
2022-09-28T02:57:53.951Z,85.52
2022-09-28T03:00:23.027Z,85.64
2022-09-28T03:02:58.203Z,85.40
2022-09-28T03:05:47.371Z,85.72
2022-09-28T03:08:20.120Z,86.15
2022-09-28T03:10:56.868Z,85.74
2022-09-28T03:13:25.313Z,85.46
2022-09-28T03:15:52.015Z,85.88
2022-09-28T03:18:18.922Z,85.69
2022-09-28T03:20:45.672Z,85.68
2022-09-28T03:23:24.352Z,85.97
2022-09-28T03:25:52.036Z,85.74
2022-09-28T03:28:18.696Z,85.93
2022-09-28T03:30:45.508Z,85.63
2022-09-28T03:33:12.305Z,85.90
2022-09-28T03:35:39.029Z,85.77
2022-09-28T03:38:05.800Z,85.70
2022-09-28T03:40:36.500Z,85.97
2022-09-28T03:43:03.431Z,85.87
2022-09-28T03:45:30.175Z,86.20
2022-09-28T03:47:56.831Z,85.85
2022-09-28T03:50:23.541Z,85.74
2022-09-28T03:52:50.153Z,86.08
2022-09-28T03:55:16.997Z,85.97
2022-09-28T03:57:43.646Z,85.39
2022-09-28T04:00:10.971Z,85.79
2022-09-28T04:02:40.564Z,86.02
2022-09-28T04:05:09.377Z,86.06
2022-09-28T04:07:37.550Z,85.60
2022-09-28T04:10:04.393Z,85.74
2022-09-28T04:12:31.296Z,85.54
2022-09-28T04:14:58.007Z,85.47
2022-09-28T04:17:24.691Z,85.94
2022-09-28T04:19:52.031Z,85.99
2022-09-28T04:22:25.629Z,85.92
2022-09-28T04:24:53.436Z,86.03
2022-09-28T04:27:38.757Z,85.77
2022-09-28T04:30:05.830Z,85.88
2022-09-28T04:32:34.098Z,85.26
2022-09-28T04:35:01.010Z,85.68
2022-09-28T04:37:27.713Z,85.69
2022-09-28T04:39:54.716Z,85.16
2022-09-28T04:42:21.415Z,85.30
2022-09-28T04:44:49.632Z,85.70
2022-09-28T04:47:16.631Z,85.59
2022-09-28T04:50:08.472Z,85.30
2022-09-28T04:52:55.100Z,85.34
2022-09-28T04:55:21.778Z,85.76
2022-09-28T04:57:48.489Z,85.55
2022-09-28T05:00:15.385Z,85.53
2022-09-28T05:02:51.292Z,85.60
2022-09-28T05:05:45.224Z,85.55
2022-09-28T05:08:40.956Z,85.69
2022-09-28T05:11:10.121Z,85.66
2022-09-28T05:13:42.931Z,85.58
2022-09-28T05:16:10.302Z,85.17
2022-09-28T05:18:56.520Z,85.63
2022-09-28T05:21:25.430Z,85.61
2022-09-28T05:23:52.627Z,85.26
2022-09-28T05:26:19.511Z,85.04
2022-09-28T05:28:46.271Z,84.78
2022-09-28T05:31:38.747Z,85.65
2022-09-28T05:34:17.151Z,85.69
2022-09-28T05:36:45.814Z,86.15
2022-09-28T05:39:12.560Z,85.93
2022-09-28T05:41:39.172Z,86.10
2022-09-28T05:44:05.843Z,85.67
2022-09-28T05:46:32.608Z,85.73
2022-09-28T05:49:01.051Z,85.67
2022-09-28T05:51:28.003Z,85.39
2022-09-28T05:54:00.740Z,85.88
2022-09-28T05:56:31.112Z,85.97
2022-09-28T05:58:58.801Z,85.78
2022-09-28T06:01:28.321Z,86.14
2022-09-28T06:03:57.199Z,85.88
2022-09-28T06:06:23.915Z,86.15
2022-09-28T06:08:50.851Z,86.07
2022-09-28T06:11:37.759Z,86.12
2022-09-28T06:14:13.779Z,86.50
2022-09-28T06:16:43.859Z,86.40
2022-09-28T06:19:11.909Z,86.45
2022-09-28T06:21:59.261Z,86.21
2022-09-28T06:24:26.331Z,86.44
2022-09-28T06:26:53.118Z,86.39
2022-09-28T06:29:20.845Z,86.16
2022-09-28T06:31:47.585Z,86.13
2022-09-28T06:34:14.746Z,85.82
2022-09-28T06:36:41.540Z,85.93
2022-09-28T06:39:08.951Z,85.81
2022-09-28T06:41:36.582Z,86.11
2022-09-28T06:44:13.304Z,86.12
2022-09-28T06:47:00.461Z,86.19
2022-09-28T06:49:51.379Z,86.07
2022-09-28T06:52:26.954Z,85.81
2022-09-28T06:55:13.829Z,85.87
2022-09-28T06:57:44.550Z,85.67
2022-09-28T07:00:12.035Z,85.72
2022-09-28T07:02:38.877Z,85.78
2022-09-28T07:05:16.922Z,85.60
2022-09-28T07:07:56.864Z,85.63
2022-09-28T07:10:43.794Z,85.41
2022-09-28T07:13:50.197Z,85.38
2022-09-28T07:16:24.149Z,85.10
2022-09-28T07:18:53.417Z,85.29
2022-09-28T07:21:29.347Z,85.31
2022-09-28T07:23:57.018Z,84.90
2022-09-28T07:26:24.698Z,84.57
2022-09-28T07:29:13.225Z,84.48
2022-09-28T07:31:54.800Z,84.47
2022-09-28T07:34:44.241Z,84.47
2022-09-28T07:37:15.942Z,84.44
2022-09-28T07:40:01.300Z,84.23
2022-09-28T07:42:30.840Z,84.41
2022-09-28T07:44:58.497Z,84.31
2022-09-28T07:47:34.687Z,84.14
2022-09-28T07:50:27.924Z,84.18
2022-09-28T07:53:15.058Z,84.07
2022-09-28T07:56:03.936Z,83.80
2022-09-28T07:58:50.755Z,83.65
2022-09-28T08:01:43.435Z,83.19
2022-09-28T08:04:13.893Z,82.89
2022-09-28T08:06:44.166Z,83.12
2022-09-28T08:09:12.814Z,82.91
2022-09-28T08:12:13.013Z,82.61
2022-09-28T08:14:59.712Z,82.66
2022-09-28T08:17:39.938Z,81.53
2022-09-28T08:20:27.209Z,81.26
2022-09-28T08:22:53.902Z,81.79
2022-09-28T08:25:21.108Z,81.77
2022-09-28T08:27:49.172Z,81.25
2022-09-28T08:30:15.937Z,80.45
2022-09-28T08:32:52.248Z,80.05
2022-09-28T08:35:37.296Z,80.82
2022-09-28T08:38:16.566Z,79.95
2022-09-28T08:41:26.273Z,78.65
2022-09-28T08:44:25.353Z,78.46
2022-09-28T08:47:35.893Z,78.67
2022-09-28T08:50:29.347Z,79.00
2022-09-28T08:53:09.696Z,78.50
2022-09-28T08:55:54.063Z,79.59
2022-09-28T08:58:24.427Z,78.11
2022-09-28T09:00:52.941Z,79.21
2022-09-28T09:03:27.871Z,76.20
2022-09-28T09:07:11.792Z,77.88
2022-09-28T09:09:45.596Z,77.24
2022-09-28T09:12:38.302Z,73.18
2022-09-28T09:15:30.888Z,75.02
2022-09-28T09:18:03.273Z,75.95
2022-09-28T09:20:54.167Z,74.56
2022-09-28T09:23:46.248Z,75.40
2022-09-28T09:26:23.217Z,74.19
2022-09-28T09:29:00.616Z,74.79
2022-09-28T09:31:48.326Z,73.98
2022-09-28T09:34:26.190Z,70.58
2022-09-28T09:37:49.998Z,71.83
2022-09-28T09:41:00.436Z,74.15
2022-09-28T09:44:17.700Z,71.65
2022-09-28T09:47:11.675Z,72.68
2022-09-28T09:50:05.477Z,73.25
2022-09-28T09:52:47.749Z,73.85
2022-09-28T09:55:30.113Z,73.08
2022-09-28T09:58:29.873Z,70.12
2022-09-28T10:01:17.862Z,71.68
2022-09-28T10:04:06.475Z,72.93
2022-09-28T10:06:35.291Z,71.98
2022-09-28T10:09:06.251Z,72.76
2022-09-28T10:11:54.452Z,72.09
2022-09-28T10:14:23.485Z,74.26
2022-09-28T10:17:02.512Z,73.18
2022-09-28T10:20:12.763Z,73.43
2022-09-28T10:23:23.199Z,75.03
2022-09-28T10:25:52.671Z,74.30
2022-09-28T10:28:29.617Z,72.49
2022-09-28T10:30:56.790Z,72.65
2022-09-28T10:33:30.438Z,71.98
2022-09-28T10:35:57.403Z,72.43
2022-09-28T10:38:24.699Z,73.67
2022-09-28T10:41:01.022Z,68.14
2022-09-28T10:44:13.485Z,69.91
2022-09-28T10:47:02.482Z,71.38
2022-09-28T10:49:46.727Z,70.75
2022-09-28T10:52:40.396Z,71.40
2022-09-28T10:55:30.618Z,70.34
2022-09-28T10:57:57.453Z,66.04
2022-09-28T11:00:36.445Z,69.46
2022-09-28T11:03:22.411Z,69.70
2022-09-28T11:05:56.247Z,68.11
2022-09-28T11:08:28.541Z,69.84
2022-09-28T11:11:03.918Z,68.60
2022-09-28T11:13:30.661Z,69.17
2022-09-28T11:16:05.064Z,70.79
2022-09-28T11:18:34.751Z,66.97
2022-09-28T11:21:27.351Z,67.55
2022-09-28T11:24:06.501Z,67.38
2022-09-28T11:26:48.007Z,65.42
2022-09-28T11:29:36.030Z,64.66
2022-09-28T11:32:29.489Z,67.67
2022-09-28T11:35:19.775Z,66.40
2022-09-28T11:37:52.908Z,65.29
2022-09-28T11:40:53.806Z,63.35
2022-09-28T11:43:43.062Z,65.63
2022-09-28T11:46:25.886Z,65.77
2022-09-28T11:48:58.368Z,63.55
2022-09-28T11:51:29.102Z,64.49
2022-09-28T11:54:00.451Z,64.72
2022-09-28T11:56:37.904Z,65.76
2022-09-28T11:59:56.070Z,65.58
2022-09-28T12:02:26.912Z,59.49
2022-09-28T12:05:00.546Z,64.88
2022-09-28T12:07:31.816Z,68.90
2022-09-28T12:10:09.529Z,66.47
2022-09-28T12:12:38.486Z,64.27
2022-09-28T12:15:17.921Z,62.64
2022-09-28T12:17:49.998Z,64.48
2022-09-28T12:20:25.650Z,66.82
2022-09-28T12:23:05.400Z,65.14
2022-09-28T12:25:46.339Z,66.90
2022-09-28T12:28:19.201Z,60.40
2022-09-28T12:30:47.673Z,62.03
2022-09-28T12:33:16.070Z,62.88
2022-09-28T12:36:06.956Z,63.76
2022-09-28T12:38:42.740Z,64.57
2022-09-28T12:41:31.428Z,64.91
2022-09-28T12:44:06.150Z,62.00
2022-09-28T12:46:46.053Z,66.38
2022-09-28T12:50:33.406Z,62.81
2022-09-28T12:55:37.587Z,61.04
2022-09-28T12:58:04.183Z,59.40
2022-09-28T13:00:36.079Z,61.02
2022-09-28T13:03:19.214Z,63.37
2022-09-28T13:06:23.350Z,60.86
2022-09-28T13:09:16.544Z,60.76
2022-09-28T13:11:47.434Z,61.79
2022-09-28T13:14:38.932Z,61.50
2022-09-28T13:17:40.597Z,59.13
2022-09-28T13:20:25.576Z,61.86
2022-09-28T13:23:12.659Z,61.18
2022-09-28T13:25:46.853Z,59.78
2022-09-28T13:28:15.751Z,57.42
2022-09-28T13:30:44.438Z,62.28
2022-09-28T13:33:18.683Z,59.40
2022-09-28T13:35:45.773Z,60.11
2022-09-28T13:38:16.163Z,62.66
2022-09-28T13:41:04.524Z,60.89
2022-09-28T13:44:10.250Z,61.50
2022-09-28T13:46:49.030Z,59.29
2022-09-28T13:49:35.243Z,61.06
2022-09-28T13:52:08.050Z,63.21
2022-09-28T13:54:47.091Z,61.62
2022-09-28T13:57:19.741Z,61.29
2022-09-28T14:00:22.613Z,62.80
2022-09-28T14:03:24.421Z,61.09
2022-09-28T14:06:00.862Z,60.13
2022-09-28T14:08:40.087Z,54.37
2022-09-28T14:11:27.074Z,59.33
2022-09-28T14:14:08.860Z,56.71
2022-09-28T14:16:36.315Z,60.51
2022-09-28T14:19:17.158Z,60.77
2022-09-28T14:22:17.873Z,61.79
2022-09-28T14:25:03.718Z,62.63
2022-09-28T14:28:08.087Z,60.31
2022-09-28T14:30:43.585Z,60.92
2022-09-28T14:33:38.881Z,62.90
2022-09-28T14:36:43.814Z,62.78
2022-09-28T14:39:41.306Z,65.02
2022-09-28T14:42:10.239Z,60.01
2022-09-28T14:45:07.055Z,60.03
2022-09-28T14:47:42.236Z,58.79
2022-09-28T14:50:35.093Z,61.03
2022-09-28T14:53:06.679Z,61.88
2022-09-28T14:55:41.988Z,63.66
2022-09-28T14:58:16.360Z,62.26
2022-09-28T15:00:44.384Z,60.62
2022-09-28T15:03:15.485Z,61.62
2022-09-28T15:05:47.233Z,60.36
2022-09-28T15:08:14.150Z,62.98
2022-09-28T15:10:46.220Z,64.74
2022-09-28T15:13:23.336Z,61.73
2022-09-28T15:15:52.632Z,63.91
2022-09-28T15:18:32.306Z,61.88
2022-09-28T15:21:03.179Z,61.50
2022-09-28T15:23:41.627Z,62.76
2022-09-28T15:26:31.106Z,63.84
2022-09-28T15:28:58.899Z,61.74
2022-09-28T15:31:27.259Z,60.27
2022-09-28T15:34:12.611Z,64.34
2022-09-28T15:36:44.245Z,65.32
2022-09-28T15:39:21.555Z,62.31
2022-09-28T15:41:50.137Z,63.77
2022-09-28T15:44:24.284Z,64.34
2022-09-28T15:47:07.451Z,65.23
2022-09-28T15:49:46.919Z,61.72
2022-09-28T15:52:41.877Z,63.57
2022-09-28T15:55:19.924Z,62.29
2022-09-28T15:57:47.528Z,63.79
2022-09-28T16:00:27.707Z,61.59
2022-09-28T16:03:03.919Z,62.91
2022-09-28T16:05:40.568Z,64.21
2022-09-28T16:08:21.300Z,64.24
2022-09-28T16:11:11.039Z,65.14
2022-09-28T16:13:48.919Z,65.19
2022-09-28T16:16:16.543Z,66.13
2022-09-28T16:18:48.257Z,64.96
2022-09-28T16:21:55.743Z,66.73
2022-09-28T16:24:26.790Z,66.55
2022-09-28T16:26:59.440Z,66.40
2022-09-28T16:29:27.745Z,66.58
2022-09-28T16:31:55.728Z,65.93
2022-09-28T16:34:26.641Z,67.70
2022-09-28T16:36:53.409Z,69.86
2022-09-28T16:39:20.849Z,69.58
2022-09-28T16:41:50.783Z,70.48
2022-09-28T16:44:28.546Z,71.46
2022-09-28T16:46:57.532Z,71.75
2022-09-28T16:49:25.657Z,73.13
2022-09-28T16:51:52.735Z,73.73
2022-09-28T16:54:40.547Z,74.21
2022-09-28T16:57:10.283Z,74.13
2022-09-28T16:59:38.526Z,73.69
2022-09-28T17:05:13.984Z,71.96
2022-09-28T17:07:40.940Z,73.67
2022-09-28T17:10:24.341Z,74.33
2022-09-28T17:12:52.192Z,73.52
2022-09-28T17:15:19.739Z,72.43
2022-09-28T17:17:47.957Z,72.32
2022-09-28T17:20:27.136Z,71.23
2022-09-28T17:22:54.123Z,71.70
2022-09-28T17:25:22.206Z,71.95
2022-09-28T17:27:49.579Z,71.97
2022-09-28T17:30:17.352Z,72.39
2022-09-28T17:32:47.271Z,73.13
2022-09-28T17:35:24.726Z,73.72
2022-09-28T17:37:52.590Z,74.70
2022-09-28T17:40:25.734Z,74.73
2022-09-28T17:42:55.181Z,74.03
2022-09-28T17:45:23.713Z,74.06
2022-09-28T17:47:50.296Z,73.89
2022-09-28T17:50:21.300Z,73.97
2022-09-28T17:52:52.683Z,73.64
2022-09-28T17:55:30.818Z,73.20
2022-09-28T17:57:58.433Z,73.64
2022-09-28T18:00:27.516Z,73.26
2022-09-28T18:02:58.257Z,72.83
2022-09-28T18:05:26.387Z,72.63
2022-09-28T18:07:53.340Z,72.79
2022-09-28T18:10:22.160Z,72.93
2022-09-28T18:12:49.784Z,73.17
2022-09-28T18:15:18.180Z,73.08
2022-09-28T18:17:45.118Z,73.07
2022-09-28T18:20:12.767Z,73.10
2022-09-28T18:22:39.723Z,73.08
2022-09-28T18:25:07.035Z,73.09
2022-09-28T18:27:37.025Z,73.05
2022-09-28T18:30:05.430Z,73.50
2022-09-28T18:32:36.837Z,73.00
2022-09-28T18:35:05.212Z,74.08
2022-09-28T18:37:36.344Z,74.61
2022-09-28T18:40:03.726Z,74.12
2022-09-28T18:42:30.343Z,73.41
2022-09-28T18:44:56.968Z,73.23
2022-09-28T18:47:23.911Z,73.47
2022-09-28T18:49:51.223Z,75.02
2022-09-28T18:52:17.913Z,74.19
2022-09-28T18:54:46.709Z,74.99
2022-09-28T18:57:13.348Z,74.83
2022-09-28T18:59:39.996Z,74.97
2022-09-28T19:02:06.929Z,75.49
2022-09-28T19:04:33.667Z,76.37
2022-09-28T19:07:00.325Z,76.50
2022-09-28T19:09:28.151Z,77.68
2022-09-28T19:11:54.905Z,77.41
2022-09-28T19:14:21.772Z,77.19
2022-09-28T19:16:48.521Z,77.38
2022-09-28T19:19:16.839Z,77.60
2022-09-28T19:21:43.916Z,78.15
2022-09-28T19:24:15.538Z,78.99
2022-09-28T19:26:42.805Z,78.89
2022-09-28T19:29:10.429Z,78.79
2022-09-28T19:31:37.365Z,78.79
2022-09-28T19:34:04.520Z,78.57
2022-09-28T19:36:31.546Z,78.42
2022-09-28T19:39:03.524Z,78.53
2022-09-28T19:41:43.305Z,78.85
2022-09-28T19:44:19.556Z,79.06
2022-09-28T19:46:46.397Z,79.42
2022-09-28T19:49:15.268Z,79.53
2022-09-28T19:52:01.655Z,79.87
2022-09-28T19:54:36.299Z,79.88
2022-09-28T19:57:08.751Z,79.93
2022-09-28T19:59:39.054Z,80.54
2022-09-28T20:02:07.227Z,80.84
2022-09-28T20:04:33.969Z,80.94
2022-09-28T20:07:01.554Z,80.91
2022-09-28T20:09:28.317Z,80.29
2022-09-28T20:11:55.130Z,80.13
2022-09-28T20:14:24.495Z,80.24
2022-09-28T20:16:53.411Z,80.20
2022-09-28T20:19:22.046Z,80.45
2022-09-28T20:21:49.404Z,80.78
2022-09-28T20:24:17.202Z,80.93
2022-09-28T20:26:44.701Z,81.34
2022-09-28T20:29:11.999Z,81.60
2022-09-28T20:31:38.916Z,81.48
2022-09-28T20:34:06.509Z,81.27
2022-09-28T20:36:33.616Z,81.18
2022-09-28T20:39:12.853Z,80.82
2022-09-28T20:41:42.553Z,80.89
2022-09-28T20:44:10.075Z,80.43
2022-09-28T20:46:37.023Z,80.57
2022-09-28T20:49:04.999Z,80.52
2022-09-28T20:51:31.866Z,80.29
2022-09-28T20:53:59.256Z,80.43
2022-09-28T20:56:30.637Z,80.29
2022-09-28T20:58:57.495Z,80.21
2022-09-28T21:01:30.049Z,80.02
2022-09-28T21:03:57.606Z,79.94
2022-09-28T21:06:29.523Z,79.95
2022-09-28T21:08:56.283Z,79.91
2022-09-28T21:11:24.556Z,80.41
2022-09-28T21:14:02.030Z,80.20
2022-09-28T21:16:30.662Z,80.52
2022-09-28T21:18:57.793Z,81.28
2022-09-28T21:21:25.593Z,81.20
2022-09-28T21:23:56.191Z,81.09
2022-09-28T21:26:25.979Z,80.87
2022-09-28T21:28:57.964Z,81.51
2022-09-28T21:31:28.905Z,81.74
2022-09-28T21:33:56.787Z,81.72
2022-09-28T21:36:23.473Z,81.34
2022-09-28T21:38:50.183Z,81.18
2022-09-28T21:41:21.123Z,80.93
2022-09-28T21:43:47.763Z,80.70
2022-09-28T21:46:14.488Z,80.82
2022-09-28T21:48:41.224Z,80.83
2022-09-28T21:51:09.277Z,80.90
2022-09-28T21:53:37.060Z,80.70
2022-09-28T21:56:05.847Z,80.76
2022-09-28T21:58:34.080Z,80.73
2022-09-28T22:01:03.759Z,80.72
2022-09-28T22:03:31.735Z,80.68
2022-09-28T22:05:58.642Z,80.43
2022-09-28T22:08:25.703Z,80.67
2022-09-28T22:11:22.771Z,80.79
2022-09-28T22:13:55.220Z,80.72
2022-09-28T22:16:23.895Z,80.83
2022-09-28T22:18:50.723Z,80.82
2022-09-28T22:21:23.153Z,80.86
2022-09-28T22:23:50.091Z,80.88
2022-09-28T22:26:23.520Z,80.85
2022-09-28T22:29:01.771Z,80.97
2022-09-28T22:31:30.942Z,81.27
2022-09-28T22:33:58.273Z,81.33
2022-09-28T22:36:25.991Z,81.43
2022-09-28T22:38:54.062Z,81.50
2022-09-28T22:41:21.111Z,81.62
2022-09-28T22:43:49.115Z,81.98
2022-09-28T22:46:18.276Z,82.20
2022-09-28T22:48:50.016Z,82.37
2022-09-28T22:51:17.057Z,82.21
2022-09-28T22:53:46.963Z,81.91
2022-09-28T22:56:18.387Z,81.49
2022-09-28T22:58:46.334Z,81.55
2022-09-28T23:01:19.828Z,81.80
2022-09-28T23:03:47.033Z,82.23
2022-09-28T23:06:16.704Z,82.15
2022-09-28T23:08:45.380Z,82.24
2022-09-28T23:11:12.088Z,82.28
2022-09-28T23:13:38.804Z,82.37
2022-09-28T23:16:07.883Z,82.76
2022-09-28T23:18:37.515Z,82.70
2022-09-28T23:21:06.053Z,82.87
2022-09-28T23:23:33.149Z,82.76
2022-09-28T23:26:00.298Z,82.56
2022-09-28T23:28:27.420Z,82.85
2022-09-28T23:30:54.417Z,82.78
2022-09-28T23:33:21.792Z,83.04
2022-09-28T23:35:48.505Z,82.94
2022-09-28T23:38:18.165Z,82.92
2022-09-28T23:40:46.057Z,82.86
2022-09-28T23:43:13.267Z,82.84
2022-09-28T23:45:40.688Z,82.94
2022-09-28T23:48:07.533Z,82.81
2022-09-28T23:50:34.300Z,82.69
2022-09-28T23:53:01.012Z,82.03
2022-09-28T23:55:27.787Z,81.79
2022-09-28T23:57:56.805Z,81.91
